Time;durP1;ratioP1;P1;durP2;ratioP2;P2;SDS_P1;SDS_P2;PMS_P1;PMS_P2;Temp;Humidity;BMP_temperature;BMP_pressure;BME280_temperature;BME280_humidity;BME280_pressure;Samples;Min_cycle;Max_cycle;Signal;HPM_P1;HPM_P2
2023/04/04 00:27:23;;;;;;;6.87;3.67;;;0.70;85.30;;;;;;4647373;29;20211;-80
2023/04/04 00:52:27;;;;;;;5.50;3.07;;;0.40;89.50;;;;;;4674324;29;20563;-81
2023/04/04 01:12:48;;;;;;;5.67;3.67;;;-0.10;91.10;;;;;;4749038;29;20922;-83
2023/04/04 01:42:53;;;;;;;6.60;3.60;;;-0.40;93.10;;;;;;4736331;29;20249;-81
2023/04/04 01:58:46;;;;;;;6.90;3.73;;;-0.50;94.20;;;;;;4724577;29;20898;-82
2023/04/04 03:04:30;;;;;;;7.17;4.53;;;-1.00;99.90;;;;;;4578708;30;20251;-78
2023/04/04 03:34:27;;;;;;;6.97;3.50;;;-1.10;99.90;;;;;;4698161;29;20574;-82
2023/04/04 03:59:51;;;;;;;7.33;3.47;;;-1.20;99.90;;;;;;4636935;29;21200;-81
2023/04/04 05:23:56;;;;;;;4.43;3.50;;;-0.20;95.70;;;;;;4621238;30;20290;-81
2023/04/04 06:33:54;;;;;;;9.10;4.37;;;1.10;86.70;;;;;;4585561;30;20869;-81
2023/04/04 06:54:05;;;;;;;6.30;4.23;;;1.40;86.30;;;;;;4506424;30;20594;-80
2023/04/04 07:24:26;;;;;;;6.60;4.23;;;2.30;82.70;;;;;;4684658;29;20397;-81
2023/04/04 07:44:53;;;;;;;6.63;4.20;;;2.70;80.20;;;;;;4592470;30;20331;-81
2023/04/04 08:15:12;;;;;;;4.97;3.07;;;3.60;75.70;;;;;;4632821;29;20690;-81
2023/04/04 08:35:10;;;;;;;6.30;2.97;;;4.30;71.90;;;;;;4592481;29;20430;-78
2023/04/04 09:25:59;;;;;;;3.27;2.97;;;4.50;68.90;;;;;;4673636;29;20615;-81
2023/04/04 09:51:48;;;;;;;3.40;2.43;;;4.20;64.00;;;;;;4667232;29;20806;-81
2023/04/04 09:56:08;;;;;;;5.23;2.70;;;4.20;58.10;;;;;;4592398;29;20611;-79
2023/04/04 10:46:57;;;;;;;4.87;2.07;;;5.20;49.80;;;;;;4520690;30;20261;-81
2023/04/04 11:07:48;;;;;;;4.30;2.07;;;4.60;54.70;;;;;;4513736;30;20229;-82
2023/04/04 11:53:20;;;;;;;3.90;2.60;;;4.70;59.90;;;;;;4618342;29;20252;-82
2023/04/04 12:18:38;;;;;;;3.70;1.93;;;4.60;55.60;;;;;;4637045;29;20859;-82
2023/04/04 12:48:55;;;;;;;3.20;2.13;;;3.60;76.30;;;;;;4618676;29;20768;-84
2023/04/04 13:24:48;;;;;;;5.07;2.50;;;3.50;72.30;;;;;;4715089;29;20623;-83
2023/04/04 13:54:32;;;;;;;5.17;2.83;;;4.10;70.70;;;;;;4687924;29;20556;-81
2023/04/04 14:50:55;;;;;;;5.87;2.53;;;4.10;63.20;;;;;;4834686;29;20194;-82
2023/04/04 15:15:40;;;;;;;3.23;2.73;;;3.90;62.70;;;;;;4886581;28;20674;-84
2023/04/04 15:36:32;;;;;;;4.83;2.90;;;3.90;63.30;;;;;;4837285;28;21178;-85
2023/04/04 15:56:55;;;;;;;4.90;3.03;;;3.70;62.60;;;;;;4661659;29;20678;-84
2023/04/04 17:12:45;;;;;;;4.80;2.77;;;3.20;65.20;;;;;;4811413;28;20679;-84
2023/04/04 17:38:09;;;;;;;5.77;2.90;;;3.00;65.40;;;;;;4753818;29;20198;-80
2023/04/04 17:57:56;;;;;;;3.50;2.70;;;3.00;68.50;;;;;;4690653;29;20554;-85
2023/04/04 18:23:41;;;;;;;5.83;3.33;;;3.10;67.00;;;;;;4799034;29;20250;-85
2023/04/04 19:04:24;;;;;;;5.17;3.17;;;2.70;74.40;;;;;;4949459;28;20819;-81
2023/04/04 19:29:30;;;;;;;5.17;3.80;;;2.40;82.20;;;;;;4708412;29;20223;-81
2023/04/04 20:45:06;;;;;;;12.63;8.43;;;0.90;93.00;;;;;;4651347;29;20543;-83
2023/04/04 21:10:50;;;;;;;11.97;6.60;;;-0.30;99.90;;;;;;4699198;29;20658;-85
2023/04/04 21:51:07;;;;;;;6.33;4.50;;;-0.10;95.70;;;;;;4763917;29;20522;-84
2023/04/04 22:12:01;;;;;;;8.47;5.03;;;-0.40;93.70;;;;;;4763921;29;20773;-81
2023/04/04 22:32:02;;;;;;;6.90;5.53;;;-1.20;99.90;;;;;;4647925;29;20209;-85
2023/04/04 22:52:40;;;;;;;8.37;5.57;;;-0.60;99.90;;;;;;4644273;29;20231;-84
2023/04/04 22:56:52;;;;;;;7.87;5.90;;;-0.40;99.90;;;;;;4596008;29;20511;-83
2023/04/04 23:22:13;;;;;;;7.40;5.37;;;-0.60;99.90;;;;;;4601915;29;20625;-84
2023/04/04 23:48:14;;;;;;;8.60;6.10;;;-1.00;99.90;;;;;;4721381;29;20255;-82
